createdAt,value
2016-09-06T00:00:11.201Z,17.46
2016-09-06T00:01:11.176Z,17.49
2016-09-06T00:02:11.159Z,17.39
2016-09-06T00:03:11.133Z,17.48
2016-09-06T00:04:11.115Z,17.48
2016-09-06T00:05:11.090Z,17.46
2016-09-06T00:06:11.074Z,17.44
2016-09-06T00:07:11.046Z,17.34
2016-09-06T00:08:11.028Z,17.33
2016-09-06T00:09:11.004Z,17.36
2016-09-06T00:10:10.984Z,17.38
2016-09-06T00:11:10.962Z,17.34
2016-09-06T00:12:10.946Z,17.3
2016-09-06T00:13:10.920Z,17.29
2016-09-06T00:14:10.908Z,17.33
2016-09-06T00:15:10.876Z,17.27
2016-09-06T00:16:10.854Z,17.27
2016-09-06T00:17:10.835Z,17.3
2016-09-06T00:18:10.811Z,17.31
2016-09-06T00:19:10.794Z,17.24
2016-09-06T00:20:10.768Z,17.3
2016-09-06T00:21:10.746Z,17.19
2016-09-06T00:22:10.723Z,17.22
2016-09-06T00:23:10.710Z,17.2
2016-09-06T00:24:10.687Z,17.14
2016-09-06T00:25:10.661Z,17.12
2016-09-06T00:26:10.644Z,17.16
2016-09-06T00:27:10.616Z,17.12
2016-09-06T00:28:10.594Z,17.11
2016-09-06T00:29:10.573Z,17.11
2016-09-06T00:30:10.551Z,17.04
2016-09-06T00:31:10.534Z,17.05
2016-09-06T00:32:10.504Z,17.09
2016-09-06T00:33:10.485Z,17.01
2016-09-06T00:34:10.461Z,17.08
2016-09-06T00:35:10.446Z,17.02
2016-09-06T00:36:10.420Z,17.06
2016-09-06T00:37:10.398Z,17.04
2016-09-06T00:38:10.373Z,17.06
2016-09-06T00:39:10.356Z,17.01
2016-09-06T00:40:10.329Z,17.02
2016-09-06T00:41:10.310Z,16.96
2016-09-06T00:42:10.289Z,16.96
2016-09-06T00:43:10.565Z,16.94
2016-09-06T00:44:10.243Z,16.96
2016-09-06T00:45:10.223Z,16.97
2016-09-06T00:46:10.221Z,17.12
2016-09-06T00:47:10.185Z,16.96
2016-09-06T00:48:10.157Z,16.97
2016-09-06T00:49:10.135Z,16.96
2016-09-06T00:50:10.109Z,16.96
2016-09-06T00:51:10.091Z,16.99
2016-09-06T00:52:10.067Z,17.02
2016-09-06T00:53:10.047Z,16.97
2016-09-06T00:54:10.021Z,17.01
2016-09-06T00:55:10.003Z,16.94
2016-09-06T00:56:09.981Z,16.99
2016-09-06T00:57:09.959Z,16.97
2016-09-06T00:58:09.934Z,16.97
2016-09-06T00:59:09.916Z,16.97
2016-09-06T01:00:09.893Z,16.97
2016-09-06T01:01:09.872Z,16.99
2016-09-06T01:02:09.850Z,16.97
2016-09-06T01:03:09.826Z,16.91
2016-09-06T01:04:09.808Z,16.93
2016-09-06T01:05:09.783Z,17.01
2016-09-06T01:06:09.758Z,16.87
2016-09-06T01:07:09.739Z,16.99
2016-09-06T01:08:09.727Z,16.94
2016-09-06T01:09:09.694Z,16.91
2016-09-06T01:10:09.672Z,16.86
2016-09-06T01:11:09.652Z,16.89
2016-09-06T01:12:09.627Z,16.89
2016-09-06T01:13:09.607Z,16.87
2016-09-06T01:14:09.585Z,16.9
2016-09-06T01:15:09.563Z,16.87
2016-09-06T01:16:09.540Z,16.84
2016-09-06T01:17:09.519Z,16.87
2016-09-06T01:18:09.497Z,16.87
2016-09-06T01:19:09.476Z,16.89
2016-09-06T01:20:09.452Z,16.9
2016-09-06T01:21:09.439Z,16.84
2016-09-06T01:22:09.413Z,16.87
2016-09-06T01:23:09.385Z,16.89
2016-09-06T01:24:09.363Z,16.86
2016-09-06T01:25:09.341Z,16.83
2016-09-06T01:26:09.332Z,16.87
2016-09-06T01:27:09.297Z,16.84
2016-09-06T01:28:09.275Z,16.83
2016-09-06T01:29:09.251Z,16.89
2016-09-06T01:30:09.231Z,16.75
2016-09-06T01:31:09.207Z,16.89
2016-09-06T01:32:09.187Z,16.84
2016-09-06T01:33:09.163Z,16.87
2016-09-06T01:34:09.143Z,16.84
2016-09-06T01:35:09.139Z,16.86
2016-09-06T01:36:09.097Z,16.84
2016-09-06T01:37:09.077Z,16.83
2016-09-06T01:38:09.054Z,16.83
2016-09-06T01:39:09.032Z,16.83
2016-09-06T01:40:09.010Z,16.78
2016-09-06T01:41:08.987Z,16.72
2016-09-06T01:42:08.965Z,16.76
2016-09-06T01:43:08.943Z,16.72
2016-09-06T01:44:08.921Z,16.71
2016-09-06T01:45:08.898Z,16.74
2016-09-06T01:46:08.876Z,16.69
2016-09-06T01:47:08.855Z,16.68
2016-09-06T01:48:08.833Z,16.66
2016-09-06T01:49:08.809Z,16.56
2016-09-06T01:50:08.793Z,16.61
2016-09-06T01:51:08.770Z,16.65
2016-09-06T01:52:08.739Z,16.6
2016-09-06T01:53:08.722Z,16.61
2016-09-06T01:54:08.695Z,16.65
2016-09-06T01:55:08.677Z,16.56
2016-09-06T01:56:08.651Z,16.58
2016-09-06T01:57:08.631Z,16.56
2016-09-06T01:58:08.607Z,16.6
2016-09-06T01:59:08.588Z,16.6
2016-09-06T02:00:08.567Z,16.47
2016-09-06T02:01:08.545Z,16.43
2016-09-06T02:02:08.524Z,16.47
2016-09-06T02:03:08.503Z,16.53
2016-09-06T02:04:08.473Z,16.53
2016-09-06T02:05:08.455Z,16.47
2016-09-06T02:06:08.434Z,16.46
2016-09-06T02:07:08.413Z,16.47
2016-09-06T02:08:08.386Z,16.41
2016-09-06T02:09:08.663Z,16.46
2016-09-06T02:10:08.344Z,16.47
2016-09-06T02:11:08.317Z,16.46
2016-09-06T02:12:08.298Z,16.43
2016-09-06T02:13:08.285Z,16.51
2016-09-06T02:14:08.253Z,16.41
2016-09-06T02:15:08.231Z,16.38
2016-09-06T02:16:08.208Z,16.38
2016-09-06T02:17:08.185Z,16.39
2016-09-06T02:18:08.163Z,16.35
2016-09-06T02:19:08.143Z,16.36
2016-09-06T02:20:08.138Z,16.33
2016-09-06T02:21:08.095Z,16.39
2016-09-06T02:22:08.074Z,16.41
2016-09-06T02:23:08.052Z,16.29
2016-09-06T02:24:08.029Z,16.38
2016-09-06T02:25:08.006Z,16.39
2016-09-06T02:26:07.988Z,16.31
2016-09-06T02:27:07.964Z,16.31
2016-09-06T02:28:07.939Z,16.31
2016-09-06T02:29:07.916Z,16.31
2016-09-06T02:30:07.895Z,16.15
2016-09-06T02:31:07.871Z,16.26
2016-09-06T02:32:07.848Z,16.23
2016-09-06T02:33:07.828Z,16.23
2016-09-06T02:34:07.804Z,16.12
2016-09-06T02:35:07.781Z,16.12
2016-09-06T02:36:07.759Z,16.02
2016-09-06T02:37:07.736Z,16.05
2016-09-06T02:38:07.714Z,16.08
2016-09-06T02:39:07.691Z,16.02
2016-09-06T02:40:07.669Z,16.1
2016-09-06T02:41:07.646Z,16.08
2016-09-06T02:42:07.623Z,16.1
2016-09-06T02:43:07.606Z,16.09
2016-09-06T02:44:07.578Z,16.09
2016-09-06T02:45:07.555Z,16.02
2016-09-06T02:46:07.533Z,16.09
2016-09-06T02:47:07.508Z,16.04
2016-09-06T02:48:07.486Z,16.08
2016-09-06T02:49:07.464Z,16.04
2016-09-06T02:50:07.443Z,15.97
2016-09-06T02:51:07.433Z,16
2016-09-06T02:52:07.397Z,15.92
2016-09-06T02:53:07.374Z,15.88
2016-09-06T02:54:07.351Z,15.91
2016-09-06T02:55:07.328Z,15.9
2016-09-06T02:56:07.306Z,15.91
2016-09-06T02:57:07.283Z,16.01
2016-09-06T02:58:07.256Z,15.9
2016-09-06T02:59:07.237Z,15.91
2016-09-06T03:00:07.213Z,15.95
2016-09-06T03:01:07.192Z,15.9
2016-09-06T03:02:07.166Z,15.88
2016-09-06T03:03:07.145Z,15.9
2016-09-06T03:04:07.120Z,15.84
2016-09-06T03:05:07.099Z,15.86
2016-09-06T03:06:07.074Z,15.84
2016-09-06T03:07:07.055Z,15.84
2016-09-06T03:08:07.029Z,15.86
2016-09-06T03:09:07.016Z,15.86
2016-09-06T03:10:06.987Z,15.86
2016-09-06T03:11:06.962Z,15.8
2016-09-06T03:12:06.953Z,15.8
2016-09-06T03:13:06.917Z,15.84
2016-09-06T03:14:06.902Z,15.77
2016-09-06T03:15:06.873Z,15.73
2016-09-06T03:16:06.846Z,15.75
2016-09-06T03:17:06.826Z,15.79
2016-09-06T03:18:06.801Z,15.75
2016-09-06T03:19:06.786Z,15.84
2016-09-06T03:20:06.755Z,15.73
2016-09-06T03:21:06.736Z,15.75
2016-09-06T03:22:06.709Z,15.77
2016-09-06T03:23:06.690Z,15.8
2016-09-06T03:24:06.664Z,15.76
2016-09-06T03:25:06.648Z,15.77
2016-09-06T03:26:06.618Z,15.83
2016-09-06T03:27:06.597Z,15.79
2016-09-06T03:28:06.572Z,15.79
2016-09-06T03:29:06.553Z,15.84
2016-09-06T03:30:06.528Z,15.76
2016-09-06T03:31:06.810Z,15.86
2016-09-06T03:32:06.482Z,15.86
2016-09-06T03:33:06.462Z,15.76
2016-09-06T03:34:06.437Z,15.82
2016-09-06T03:35:06.416Z,15.79
2016-09-06T03:36:06.391Z,15.79
2016-09-06T03:37:06.372Z,15.8
2016-09-06T03:38:06.345Z,15.86
2016-09-06T03:39:06.326Z,15.82
2016-09-06T03:40:06.299Z,15.77
2016-09-06T03:41:06.293Z,15.8
2016-09-06T03:42:06.254Z,15.75
2016-09-06T03:43:06.234Z,15.84
2016-09-06T03:44:06.209Z,15.77
2016-09-06T03:45:06.188Z,15.82
2016-09-06T03:46:06.162Z,15.73
2016-09-06T03:47:06.142Z,15.77
2016-09-06T03:48:06.117Z,15.84
2016-09-06T03:49:06.096Z,15.8
2016-09-06T03:50:06.071Z,15.84
2016-09-06T03:51:06.050Z,15.76
2016-09-06T03:52:06.026Z,15.84
2016-09-06T03:53:06.004Z,15.77
2016-09-06T03:54:05.979Z,15.8
2016-09-06T03:55:05.959Z,15.73
2016-09-06T03:56:05.935Z,15.8
2016-09-06T03:57:05.913Z,15.73
2016-09-06T03:58:05.890Z,15.73
2016-09-06T03:59:05.868Z,15.79
2016-09-06T04:00:05.852Z,15.73
2016-09-06T04:01:05.822Z,15.79
2016-09-06T04:02:05.799Z,15.82
2016-09-06T04:03:05.776Z,15.8
2016-09-06T04:04:05.759Z,15.83
2016-09-06T04:05:05.732Z,15.79
2016-09-06T04:06:05.707Z,15.79
2016-09-06T04:07:05.684Z,15.83
2016-09-06T04:08:05.662Z,15.7
2016-09-06T04:09:05.650Z,15.73
2016-09-06T04:10:05.617Z,15.7
2016-09-06T04:11:05.589Z,15.76
2016-09-06T04:12:05.567Z,15.75
2016-09-06T04:13:05.543Z,15.76
2016-09-06T04:14:05.526Z,15.8
2016-09-06T04:15:05.498Z,15.73
2016-09-06T04:16:05.479Z,15.75
2016-09-06T04:17:05.452Z,15.64
2016-09-06T04:18:05.431Z,15.7
2016-09-06T04:19:05.406Z,15.64
2016-09-06T04:20:05.388Z,15.7
2016-09-06T04:21:05.360Z,15.72
2016-09-06T04:22:05.340Z,15.76
2016-09-06T04:23:05.316Z,15.61
2016-09-06T04:24:05.294Z,15.67
2016-09-06T04:25:05.269Z,15.62
2016-09-06T04:26:05.249Z,15.65
2016-09-06T04:27:05.223Z,15.72
2016-09-06T04:28:05.203Z,15.61
2016-09-06T04:29:05.181Z,15.61
2016-09-06T04:30:05.156Z,15.62
2016-09-06T04:31:05.131Z,15.65
2016-09-06T04:32:05.111Z,15.68
2016-09-06T04:33:05.092Z,15.67
2016-09-06T04:34:05.064Z,15.67
2016-09-06T04:35:05.041Z,15.75
2016-09-06T04:36:05.020Z,15.67
2016-09-06T04:37:04.996Z,15.65
2016-09-06T04:38:04.972Z,15.7
2016-09-06T04:39:04.951Z,15.73
2016-09-06T04:40:04.938Z,15.62
2016-09-06T04:41:04.903Z,15.75
2016-09-06T04:42:04.877Z,15.68
2016-09-06T04:43:04.861Z,15.77
2016-09-06T04:44:04.834Z,15.72
2016-09-06T04:45:04.812Z,15.75
2016-09-06T04:46:04.788Z,15.73
2016-09-06T04:47:04.771Z,15.75
2016-09-06T04:48:04.740Z,15.7
2016-09-06T04:49:04.721Z,15.75
2016-09-06T04:50:04.695Z,15.79
2016-09-06T04:51:04.673Z,15.65
2016-09-06T04:52:04.648Z,15.79
2016-09-06T04:53:04.628Z,15.72
2016-09-06T04:54:04.602Z,15.7
2016-09-06T04:55:04.582Z,15.72
2016-09-06T04:56:04.557Z,15.76
2016-09-06T04:57:04.538Z,15.67
2016-09-06T04:58:04.510Z,15.77
2016-09-06T04:59:04.495Z,15.76
2016-09-06T05:00:04.775Z,15.72
2016-09-06T05:01:04.445Z,15.72
2016-09-06T05:02:04.420Z,15.75
2016-09-06T05:03:04.399Z,15.75
2016-09-06T05:04:04.383Z,15.76
2016-09-06T05:05:04.354Z,15.76
2016-09-06T05:06:04.327Z,15.79
2016-09-06T05:07:04.308Z,15.72
2016-09-06T05:08:04.282Z,15.75
2016-09-06T05:09:04.263Z,15.8
2016-09-06T05:10:04.237Z,15.79
2016-09-06T05:11:04.217Z,15.77
2016-09-06T05:12:04.192Z,15.73
2016-09-06T05:13:04.171Z,15.8
2016-09-06T05:14:04.149Z,15.8
2016-09-06T05:15:04.140Z,15.8
2016-09-06T05:16:04.103Z,15.84
2016-09-06T05:17:04.080Z,15.83
2016-09-06T05:18:04.058Z,15.86
2016-09-06T05:19:04.033Z,15.84
2016-09-06T05:20:04.013Z,15.8
2016-09-06T05:21:03.987Z,15.9
2016-09-06T05:22:03.966Z,15.9
2016-09-06T05:23:03.941Z,15.94
2016-09-06T05:24:03.921Z,15.88
2016-09-06T05:25:03.897Z,15.95
2016-09-06T05:26:03.881Z,16
2016-09-06T05:27:03.855Z,16.04
2016-09-06T05:28:03.830Z,16.1
2016-09-06T05:29:03.808Z,16
2016-09-06T05:30:03.787Z,16.08
2016-09-06T05:31:03.763Z,16.05
2016-09-06T05:32:03.740Z,16.1
2016-09-06T05:33:03.726Z,16.08
2016-09-06T05:34:03.696Z,16.1
2016-09-06T05:35:03.673Z,16.16
2016-09-06T05:36:03.950Z,16.16
2016-09-06T05:37:03.628Z,16.26
2016-09-06T05:38:03.604Z,16.21
2016-09-06T05:39:03.583Z,16.23
2016-09-06T05:40:03.570Z,16.24
2016-09-06T05:41:03.537Z,16.29
2016-09-06T05:42:03.516Z,16.38
2016-09-06T05:43:03.490Z,16.28
2016-09-06T05:44:03.472Z,16.33
2016-09-06T05:45:03.446Z,16.42
2016-09-06T05:46:03.431Z,16.41
2016-09-06T05:47:03.404Z,16.42
2016-09-06T05:48:03.385Z,16.46
2016-09-06T05:49:03.365Z,16.42
2016-09-06T05:50:03.337Z,16.47
2016-09-06T05:51:03.315Z,16.51
2016-09-06T05:52:03.295Z,16.47
2016-09-06T05:53:03.271Z,16.54
2016-09-06T05:54:03.250Z,16.6
2016-09-06T05:55:03.228Z,16.58
2016-09-06T05:56:03.205Z,16.65
2016-09-06T05:57:03.482Z,16.61
2016-09-06T05:58:03.160Z,16.68
2016-09-06T05:59:03.154Z,16.68
2016-09-06T06:00:03.117Z,16.78
2016-09-06T06:01:03.097Z,16.75
2016-09-06T06:02:03.080Z,16.74
2016-09-06T06:03:03.054Z,16.83
2016-09-06T06:04:03.031Z,16.9
2016-09-06T06:05:03.010Z,16.86
2016-09-06T06:06:02.987Z,16.97
2016-09-06T06:07:02.967Z,16.93
2016-09-06T06:08:02.942Z,16.97
2016-09-06T06:09:02.928Z,16.99
2016-09-06T06:10:02.902Z,16.9
2016-09-06T06:11:02.878Z,16.99
2016-09-06T06:12:02.859Z,16.97
2016-09-06T06:13:03.132Z,16.93
2016-09-06T06:14:02.815Z,16.94
2016-09-06T06:15:02.792Z,17.05
2016-09-06T06:16:02.772Z,17.08
2016-09-06T06:17:02.748Z,17.09
2016-09-06T06:18:02.730Z,17.04
2016-09-06T06:19:02.710Z,17.16
2016-09-06T06:20:02.686Z,17.14
2016-09-06T06:21:02.662Z,17.16
2016-09-06T06:22:02.641Z,17.2
2016-09-06T06:23:02.619Z,17.26
2016-09-06T06:24:02.601Z,17.27
2016-09-06T06:25:02.594Z,17.31
2016-09-06T06:26:02.554Z,17.38
2016-09-06T06:27:02.540Z,17.39
2016-09-06T06:28:02.512Z,17.41
2016-09-06T06:29:02.493Z,17.42
2016-09-06T06:30:02.471Z,17.42
2016-09-06T06:31:02.471Z,17.46
2016-09-06T06:32:02.428Z,17.48
2016-09-06T06:33:02.410Z,17.46
2016-09-06T06:34:02.388Z,17.51
2016-09-06T06:35:02.381Z,17.56
2016-09-06T06:36:02.346Z,17.63
2016-09-06T06:37:02.326Z,17.67
2016-09-06T06:38:02.306Z,17.7
2016-09-06T06:39:02.295Z,17.68
2016-09-06T06:40:02.264Z,17.67
2016-09-06T06:41:02.240Z,17.78
2016-09-06T06:42:02.222Z,17.68
2016-09-06T06:43:02.198Z,17.76
2016-09-06T06:44:02.180Z,17.82
2016-09-06T06:45:02.157Z,17.86
2016-09-06T06:46:02.154Z,17.83
2016-09-06T06:47:02.118Z,17.94
2016-09-06T06:48:02.097Z,17.98
2016-09-06T06:49:02.079Z,17.97
2016-09-06T06:50:02.058Z,17.94
2016-09-06T06:51:02.037Z,17.97
2016-09-06T06:52:02.035Z,18.08
2016-09-06T06:53:01.998Z,18.15
2016-09-06T06:54:01.972Z,18.08
2016-09-06T06:55:01.970Z,18.18
2016-09-06T06:56:01.932Z,18.22
2016-09-06T06:57:01.916Z,18.26
2016-09-06T06:58:01.898Z,18.35
2016-09-06T06:59:01.873Z,18.35
2016-09-06T07:00:01.854Z,18.41
2016-09-06T07:01:01.835Z,18.55
2016-09-06T07:02:01.893Z,18.47
2016-09-06T07:03:01.789Z,18.58
2016-09-06T07:04:01.771Z,18.52
2016-09-06T07:05:01.753Z,18.59
2016-09-06T07:06:01.729Z,18.65
2016-09-06T07:07:01.711Z,18.59
2016-09-06T07:08:01.690Z,18.58
2016-09-06T07:09:01.687Z,18.62
2016-09-06T07:10:01.650Z,18.62
2016-09-06T07:11:01.631Z,18.71
2016-09-06T07:12:01.614Z,18.77
2016-09-06T07:13:01.594Z,18.75
2016-09-06T07:14:01.570Z,18.84
2016-09-06T07:15:01.645Z,18.86
2016-09-06T07:16:01.533Z,18.99
2016-09-06T07:17:01.604Z,18.99
2016-09-06T07:18:01.512Z,19.14
2016-09-06T07:19:01.474Z,19.09
2016-09-06T07:20:01.453Z,19.08
2016-09-06T07:21:01.432Z,19.26
2016-09-06T07:22:01.412Z,19.19
2016-09-06T07:23:01.400Z,19.19
2016-09-06T07:24:01.377Z,19.31
2016-09-06T07:25:01.356Z,19.21
2016-09-06T07:26:01.818Z,19.29
2016-09-06T07:27:01.317Z,19.3
2016-09-06T07:28:01.294Z,19.26
2016-09-06T07:29:01.279Z,19.41
2016-09-06T07:30:01.270Z,19.3
2016-09-06T07:31:01.241Z,19.47
2016-09-06T07:32:01.219Z,19.51
2016-09-06T07:33:01.202Z,19.51
2016-09-06T07:34:01.182Z,19.54
2016-09-06T07:35:01.164Z,19.63
2016-09-06T07:36:01.144Z,19.69
2016-09-06T07:37:01.123Z,19.74
2016-09-06T07:38:01.105Z,19.74
2016-09-06T07:39:01.085Z,19.86
2016-09-06T07:40:01.073Z,19.86
2016-09-06T07:41:01.046Z,19.82
2016-09-06T07:42:01.028Z,19.89
2016-09-06T07:43:01.017Z,19.99
2016-09-06T07:44:00.991Z,19.96
2016-09-06T07:45:00.972Z,19.99
2016-09-06T07:46:00.954Z,20.04
2016-09-06T07:47:00.931Z,20.07
2016-09-06T07:48:00.915Z,20.03
2016-09-06T07:49:00.897Z,20.04
2016-09-06T07:50:00.879Z,20.22
2016-09-06T07:51:00.857Z,20.21
2016-09-06T07:52:00.841Z,20.26
2016-09-06T07:53:00.821Z,20.31
2016-09-06T07:54:00.804Z,20.4
2016-09-06T07:55:00.788Z,20.36
2016-09-06T07:56:00.779Z,20.44
2016-09-06T07:57:00.749Z,20.52
2016-09-06T07:58:00.730Z,20.48
2016-09-06T07:59:00.715Z,20.65
2016-09-06T08:00:00.693Z,20.55
2016-09-06T08:01:00.674Z,20.59
2016-09-06T08:02:00.654Z,20.63
2016-09-06T08:03:00.639Z,20.6
2016-09-06T08:04:00.618Z,20.67
2016-09-06T08:05:00.608Z,20.78
2016-09-06T08:06:00.590Z,20.67
2016-09-06T08:07:00.565Z,20.82
2016-09-06T08:08:00.547Z,20.84
2016-09-06T08:09:00.525Z,20.93
2016-09-06T08:10:00.510Z,20.85
2016-09-06T08:11:00.491Z,20.95
2016-09-06T08:12:00.484Z,21.03
2016-09-06T08:13:00.459Z,21.11
2016-09-06T08:14:00.439Z,21.06
2016-09-06T08:15:00.426Z,21.12
2016-09-06T08:16:00.452Z,21.17
2016-09-06T08:17:00.384Z,21.24
2016-09-06T08:18:00.367Z,21.24
2016-09-06T08:19:00.347Z,21.33
2016-09-06T08:20:00.630Z,21.35
2016-09-06T08:21:00.314Z,21.36
2016-09-06T08:22:00.310Z,21.45
2016-09-06T08:23:00.285Z,21.4
2016-09-06T08:24:00.259Z,21.54
2016-09-06T08:25:00.298Z,21.51
2016-09-06T08:26:00.225Z,21.57
2016-09-06T08:27:00.221Z,21.57
2016-09-06T08:28:00.198Z,21.61
2016-09-06T08:29:00.174Z,21.66
2016-09-06T08:30:00.154Z,21.64
2016-09-06T08:31:00.138Z,21.61
2016-09-06T08:32:00.120Z,21.76
2016-09-06T08:33:00.106Z,21.75
2016-09-06T08:34:00.085Z,21.76
2016-09-06T08:35:00.067Z,21.88
2016-09-06T08:36:00.054Z,21.83
2016-09-06T08:37:00.032Z,21.93
2016-09-06T08:38:00.015Z,21.95
2016-09-06T08:39:00.001Z,21.91
2016-09-06T08:39:59.981Z,22.02
2016-09-06T08:40:59.960Z,22.1
2016-09-06T08:41:59.947Z,22.02
2016-09-06T08:42:59.927Z,22
2016-09-06T08:43:59.918Z,22.1
2016-09-06T08:44:59.894Z,22.06
2016-09-06T08:45:59.877Z,22.11
2016-09-06T08:46:59.876Z,22.07
2016-09-06T08:47:59.843Z,22.11
2016-09-06T08:48:59.825Z,22.17
2016-09-06T08:49:59.826Z,22.15
2016-09-06T08:50:59.792Z,22.18
2016-09-06T08:51:59.772Z,22.26
2016-09-06T08:52:59.757Z,22.23
2016-09-06T08:53:59.739Z,22.23
2016-09-06T08:54:59.723Z,22.25
2016-09-06T08:55:59.704Z,22.43
2016-09-06T08:56:59.691Z,22.39
2016-09-06T08:57:59.677Z,22.44
2016-09-06T08:58:59.753Z,22.45
2016-09-06T08:59:59.938Z,22.35
2016-09-06T09:00:59.627Z,22.53
2016-09-06T09:01:59.606Z,22.54
2016-09-06T09:02:59.589Z,22.53
2016-09-06T09:03:59.573Z,22.6
2016-09-06T09:04:59.554Z,22.69
2016-09-06T09:05:59.541Z,22.68
2016-09-06T09:06:59.520Z,22.69
2016-09-06T09:07:59.506Z,22.75
2016-09-06T09:08:59.490Z,22.8
2016-09-06T09:09:59.472Z,22.83
2016-09-06T09:10:59.460Z,22.88
2016-09-06T09:11:59.438Z,22.88
2016-09-06T09:12:59.424Z,22.91
2016-09-06T09:13:59.407Z,22.85
2016-09-06T09:14:59.391Z,22.96
2016-09-06T09:15:59.376Z,22.98
2016-09-06T09:16:59.357Z,23
2016-09-06T09:17:59.337Z,23.02
2016-09-06T09:18:59.340Z,22.98
2016-09-06T09:19:59.305Z,23.06
2016-09-06T09:20:59.612Z,23.09
2016-09-06T09:21:59.272Z,23.13
2016-09-06T09:22:59.261Z,23.15
2016-09-06T09:23:59.241Z,23.32
2016-09-06T09:24:59.226Z,23.37
2016-09-06T09:25:59.207Z,23.39
2016-09-06T09:26:59.195Z,23.43
2016-09-06T09:27:59.176Z,23.44
2016-09-06T09:28:59.160Z,23.5
2016-09-06T09:29:59.158Z,23.51
2016-09-06T09:30:59.133Z,23.5
2016-09-06T09:31:59.114Z,23.48
2016-09-06T09:32:59.097Z,23.56
2016-09-06T09:33:59.082Z,23.69
2016-09-06T09:34:59.066Z,23.56
2016-09-06T09:35:59.049Z,23.62
2016-09-06T09:36:59.031Z,23.66
2016-09-06T09:37:59.017Z,23.66
2016-09-06T09:38:58.998Z,23.69
2016-09-06T09:39:58.986Z,23.8
2016-09-06T09:41:58.963Z,23.76
2016-09-06T09:42:58.939Z,23.81
2016-09-06T09:43:58.926Z,23.78
2016-09-06T09:44:58.908Z,23.74
2016-09-06T09:45:58.888Z,23.81
2016-09-06T09:46:58.877Z,23.87
2016-09-06T09:47:58.859Z,23.87
2016-09-06T09:48:59.483Z,23.91
2016-09-06T09:49:58.828Z,23.96
2016-09-06T09:50:58.810Z,23.96
2016-09-06T09:51:58.797Z,23.96
2016-09-06T09:52:58.782Z,24.08
2016-09-06T09:53:58.764Z,24.03
2016-09-06T09:54:58.748Z,24.08
2016-09-06T09:55:58.733Z,24.14
2016-09-06T09:56:58.717Z,24.18
2016-09-06T09:57:58.712Z,24.28
2016-09-06T09:58:58.686Z,24.21
2016-09-06T09:59:58.667Z,24.28
2016-09-06T10:00:58.657Z,24.3
2016-09-06T10:01:58.639Z,24.3
2016-09-06T10:02:58.624Z,24.32
2016-09-06T10:03:58.610Z,24.36
2016-09-06T10:04:58.588Z,24.24
2016-09-06T10:05:58.577Z,24.36
2016-09-06T10:06:58.559Z,24.3
2016-09-06T10:07:58.546Z,24.38
2016-09-06T10:08:58.526Z,24.35
2016-09-06T10:09:58.514Z,24.45
2016-09-06T10:10:58.499Z,24.5
2016-09-06T10:11:58.480Z,24.55
2016-09-06T10:12:58.466Z,24.57
2016-09-06T10:13:58.450Z,24.65
2016-09-06T10:14:58.436Z,24.7
2016-09-06T10:15:58.422Z,24.7
2016-09-06T10:16:58.406Z,24.86
2016-09-06T10:17:58.689Z,24.86
2016-09-06T10:18:58.375Z,24.86
2016-09-06T10:19:58.359Z,24.81
2016-09-06T10:20:58.342Z,24.88
2016-09-06T10:21:58.341Z,24.91
2016-09-06T10:22:58.312Z,24.93
2016-09-06T10:23:58.299Z,25.01
2016-09-06T10:24:58.282Z,24.96
2016-09-06T10:25:58.273Z,25.03
2016-09-06T10:26:58.253Z,25.13
2016-09-06T10:27:58.238Z,25.08
2016-09-06T10:28:58.224Z,25.14
2016-09-06T10:29:58.208Z,25.13
2016-09-06T10:30:58.200Z,25.17
2016-09-06T10:31:58.178Z,25.22
2016-09-06T10:32:58.162Z,25.22
2016-09-06T10:33:58.153Z,25.29
2016-09-06T10:34:58.131Z,25.35
2016-09-06T10:35:58.118Z,25.36
2016-09-06T10:36:58.103Z,25.35
2016-09-06T10:37:58.089Z,25.35
2016-09-06T10:38:58.075Z,25.47
2016-09-06T10:39:58.057Z,25.48
2016-09-06T10:40:58.044Z,25.59
2016-09-06T10:41:58.028Z,25.62
2016-09-06T10:42:58.019Z,25.59
2016-09-06T10:43:58.000Z,25.62
2016-09-06T10:44:57.987Z,25.69
2016-09-06T10:45:57.970Z,25.65
2016-09-06T10:46:57.955Z,25.63
2016-09-06T10:47:57.950Z,25.62
2016-09-06T10:48:57.927Z,25.69
2016-09-06T10:49:57.911Z,25.81
2016-09-06T10:50:57.898Z,25.78
2016-09-06T10:51:57.897Z,25.83
2016-09-06T10:52:57.870Z,25.78
2016-09-06T10:53:57.851Z,25.75
2016-09-06T10:54:57.846Z,25.88
2016-09-06T10:55:57.824Z,25.69
2016-09-06T10:56:57.815Z,25.9
2016-09-06T10:57:57.795Z,25.85
2016-09-06T10:58:57.785Z,25.98
2016-09-06T10:59:57.768Z,25.95
2016-09-06T11:00:57.755Z,25.96
2016-09-06T11:01:57.741Z,26.09
2016-09-06T11:02:57.726Z,26.16
2016-09-06T11:03:57.712Z,26.15
2016-09-06T11:04:57.698Z,26.18
2016-09-06T11:05:57.681Z,26.25
2016-09-06T11:06:57.683Z,26.26
2016-09-06T11:07:57.659Z,26.29
2016-09-06T11:08:57.640Z,26.33
2016-09-06T11:09:57.627Z,26.28
2016-09-06T11:10:57.612Z,26.22
2016-09-06T11:11:57.601Z,26.33
2016-09-06T11:12:57.584Z,26.34
2016-09-06T11:13:57.573Z,26.4
2016-09-06T11:14:57.556Z,26.4
2016-09-06T11:15:57.543Z,26.51
2016-09-06T11:16:57.528Z,26.59
2016-09-06T11:17:57.517Z,26.55
2016-09-06T11:18:57.501Z,26.62
2016-09-06T11:19:57.487Z,26.6
2016-09-06T11:20:57.476Z,26.6
2016-09-06T11:21:57.462Z,26.65
2016-09-06T11:22:57.449Z,26.65
2016-09-06T11:23:57.447Z,26.63
2016-09-06T11:24:57.427Z,26.63
2016-09-06T11:25:57.407Z,26.7
2016-09-06T11:26:57.394Z,26.6
2016-09-06T11:27:57.381Z,26.66
2016-09-06T11:28:57.370Z,26.71
2016-09-06T11:29:57.354Z,26.8
2016-09-06T11:30:57.339Z,26.9
2016-09-06T11:31:57.325Z,26.83
2016-09-06T11:32:57.314Z,26.93
2016-09-06T11:33:57.298Z,26.89
2016-09-06T11:34:57.287Z,26.93
2016-09-06T11:35:57.272Z,27
2016-09-06T11:36:57.261Z,26.96
2016-09-06T11:37:57.250Z,26.88
2016-09-06T11:38:57.233Z,26.75
2016-09-06T11:39:57.226Z,26.63
2016-09-06T11:40:57.208Z,26.66
2016-09-06T11:41:57.197Z,26.8
2016-09-06T11:42:57.182Z,26.84
2016-09-06T11:43:57.169Z,26.95
2016-09-06T11:44:57.486Z,26.88
2016-09-06T11:45:57.141Z,26.96
2016-09-06T11:46:57.129Z,27.03
2016-09-06T11:47:57.114Z,27.15
2016-09-06T11:48:57.110Z,27.17
2016-09-06T11:49:57.089Z,27.18
2016-09-06T11:50:57.076Z,27.2
2016-09-06T11:51:57.064Z,27.22
2016-09-06T11:52:57.055Z,27.27
2016-09-06T11:53:57.038Z,27.2
2016-09-06T11:54:57.025Z,27.35
2016-09-06T11:55:57.011Z,27.27
2016-09-06T11:56:56.996Z,27.35
2016-09-06T11:57:56.987Z,27.42
2016-09-06T11:58:56.970Z,27.36
2016-09-06T11:59:56.962Z,27.36
2016-09-06T12:00:56.945Z,27.42
2016-09-06T12:01:56.933Z,27.54
2016-09-06T12:02:56.918Z,27.51
2016-09-06T12:03:56.909Z,27.4
2016-09-06T12:04:56.902Z,27.3
2016-09-06T12:05:56.882Z,27.32
2016-09-06T12:06:56.867Z,27.27
2016-09-06T12:07:56.856Z,27.14
2016-09-06T12:08:56.844Z,27.22
2016-09-06T12:09:56.825Z,27.08
2016-09-06T12:10:56.818Z,27.12
2016-09-06T12:11:57.103Z,27.03
2016-09-06T12:12:56.797Z,27.02
2016-09-06T12:13:56.774Z,26.99
2016-09-06T12:14:56.764Z,27.1
2016-09-06T12:15:56.754Z,27.11
2016-09-06T12:16:56.740Z,27.22
2016-09-06T12:17:56.727Z,27.18
2016-09-06T12:18:56.713Z,27.32
2016-09-06T12:19:56.698Z,27.4
2016-09-06T12:20:56.688Z,27.59
2016-09-06T12:21:56.680Z,27.6
2016-09-06T12:22:56.659Z,27.74
2016-09-06T12:23:56.649Z,27.87
2016-09-06T12:24:56.632Z,27.86
2016-09-06T12:25:56.624Z,27.85
2016-09-06T12:26:56.722Z,27.87
2016-09-06T12:27:56.599Z,27.86
2016-09-06T12:28:56.582Z,27.89
2016-09-06T12:29:56.572Z,28
2016-09-06T12:30:56.562Z,28.11
2016-09-06T12:31:56.551Z,28.04
2016-09-06T12:32:56.535Z,28.08
2016-09-06T12:33:56.530Z,28.1
2016-09-06T12:34:56.510Z,27.86
2016-09-06T12:35:56.496Z,27.96
2016-09-06T12:36:56.483Z,28.05
2016-09-06T12:37:56.473Z,28.01
2016-09-06T12:38:56.465Z,27.96
2016-09-06T12:39:56.445Z,28.07
2016-09-06T12:40:56.435Z,28.17
2016-09-06T12:41:56.420Z,28.19
2016-09-06T12:42:56.409Z,28.12
2016-09-06T12:43:56.393Z,28.14
2016-09-06T12:44:56.384Z,28.12
2016-09-06T12:45:56.371Z,28.1
2016-09-06T12:46:56.359Z,28.2
2016-09-06T12:47:56.390Z,28.15
2016-09-06T12:48:56.338Z,28.04
2016-09-06T12:49:56.321Z,28.15
2016-09-06T12:50:56.312Z,28.07
2016-09-06T12:51:56.296Z,28.05
2016-09-06T12:52:56.285Z,28.11
2016-09-06T12:53:56.269Z,28.02
2016-09-06T12:54:56.259Z,28.01
2016-09-06T12:55:56.257Z,27.87
2016-09-06T12:56:56.233Z,27.83